Islamabad Weather



Islamabad's Current Weather

Temprature 33.33o scattered clouds

scattered clouds

Rain: 0 %

Min Temprature33.33o
Max Temprature33.33o
Humidity33
Wind Speed1.34 m/h
Sun Rise05:12:20
Sun Set18:55:35
Current Time: 08-May-2021 15:36:09
Lat/Lon: 33.7104, 73.1338




Islamabad's Geo Location



Islamabad's Weather Forecast

Time Overall Temp Min Temp Max Temp Humidity Wind Speed Rain
08-May-2021 (Sat)
17:00:00 scattered clouds 33.330 32.140 33.330 33 2.62 m/h 0 %
20:00:00 scattered clouds 31.000 26.350 31.000 36 3.37 m/h 0 %
23:00:00 scattered clouds 27.920 25.220 27.920 40 3.37 m/h 0 %
09-May-2021 (Sun)
02:00:00 light rain 23.640 23.640 23.640 47 3.19 m/h 23 %
05:00:00 light rain 23.140 23.140 23.140 46 2.51 m/h 18 %
08:00:00 broken clouds 29.460 29.460 29.460 31 1.68 m/h 0 %
11:00:00 broken clouds 33.940 33.940 33.940 23 2.41 m/h 0 %
14:00:00 few clouds 36.020 36.020 36.020 19 4.15 m/h 0 %
17:00:00 clear sky 34.180 34.180 34.180 21 2.49 m/h 0 %
20:00:00 broken clouds 28.200 28.200 28.200 33 1.3 m/h 0 %
23:00:00 broken clouds 24.660 24.660 24.660 46 2.87 m/h 0 %
10-May-2021 (Mon)
02:00:00 overcast clouds 24.670 24.670 24.670 44 2.29 m/h 0 %
05:00:00 light rain 23.540 23.540 23.540 47 1.6 m/h 14 %
08:00:00 light rain 29.050 29.050 29.050 33 1.33 m/h 10 %
11:00:00 broken clouds 33.530 33.530 33.530 23 2.81 m/h 0 %
14:00:00 overcast clouds 35.860 35.860 35.860 20 3.62 m/h 0 %
17:00:00 overcast clouds 35.580 35.580 35.580 20 2.92 m/h 0 %
20:00:00 scattered clouds 29.690 29.690 29.690 31 2.55 m/h 0 %
23:00:00 scattered clouds 27.150 27.150 27.150 39 3.27 m/h 0 %
11-May-2021 (Tue)
02:00:00 clear sky 26.280 26.280 26.280 39 2.75 m/h 0 %
05:00:00 light rain 25.120 25.120 25.120 42 2.66 m/h 15 %
08:00:00 light rain 30.980 30.980 30.980 28 1.71 m/h 26 %
11:00:00 light rain 35.470 35.470 35.470 21 3.4 m/h 15 %
14:00:00 clear sky 37.780 37.780 37.780 16 5.23 m/h 0 %
17:00:00 clear sky 36.900 36.900 36.900 16 0.79 m/h 0 %
20:00:00 broken clouds 28.130 28.130 28.130 34 4.4 m/h 0 %
23:00:00 light rain 23.750 23.750 23.750 53 6.04 m/h 59 %
12-May-2021 (Wed)
02:00:00 light rain 22.600 22.600 22.600 56 5.95 m/h 126 %
05:00:00 light rain 21.620 21.620 21.620 60 3.01 m/h 17 %
08:00:00 light rain 26.470 26.470 26.470 44 2.26 m/h 115 %
11:00:00 light rain 31.070 31.070 31.070 31 3.61 m/h 41 %
14:00:00 overcast clouds 32.860 32.860 32.860 26 5 m/h 0 %
17:00:00 light rain 29.110 29.110 29.110 36 6.01 m/h 73 %
20:00:00 light rain 20.930 20.930 20.930 68 3.46 m/h 268 %
23:00:00 light rain 21.660 21.660 21.660 64 4.25 m/h 140 %
13-May-2021 (Thu)
02:00:00 light rain 20.340 20.340 20.340 69 1.27 m/h 179 %
05:00:00 moderate rain 19.840 19.840 19.840 72 2.19 m/h 401 %
08:00:00 light rain 23.820 23.820 23.820 51 1.84 m/h 156 %
11:00:00 broken clouds 28.350 28.350 28.350 37 1.4 m/h 0 %
14:00:00 scattered clouds 31.020 31.020 31.020 29 1.96 m/h 0 %


Islamabad's Tourist Spots

Historical Places in Islamabad

Famous Cities (60)